Time;durP1;ratioP1;P1;durP2;ratioP2;P2;SDS_P1;SDS_P2;PMS_P1;PMS_P2;Temp;Humidity;BMP_temperature;BMP_pressure;BME280_temperature;BME280_humidity;BME280_pressure;Samples;Min_cycle;Max_cycle;Signal;HPM_P1;HPM_P2
2021/07/27 00:00:29;;;;;;;29.73;21.08;;;20.10;95.00;;;;;;4996100;28;20020;-83
2021/07/27 00:02:55;;;;;;;28.13;18.73;;;20.10;95.00;;;;;;4996048;28;20117;-83
2021/07/27 00:05:20;;;;;;;29.75;19.45;;;20.10;95.00;;;;;;4995015;28;20415;-83
2021/07/27 00:07:46;;;;;;;32.53;22.08;;;20.10;95.10;;;;;;4995429;28;20014;-83
2021/07/27 00:10:12;;;;;;;35.95;22.48;;;20.10;95.10;;;;;;4996046;28;20387;-83
2021/07/27 00:12:38;;;;;;;29.67;20.67;;;20.10;95.10;;;;;;4979402;28;20033;-84
2021/07/27 00:15:04;;;;;;;30.63;19.95;;;20.10;95.20;;;;;;4982886;28;20033;-83
2021/07/27 00:17:30;;;;;;;30.88;20.58;;;20.00;95.20;;;;;;4986869;28;20036;-83
2021/07/27 00:19:56;;;;;;;29.52;20.25;;;20.00;95.20;;;;;;5002709;28;20025;-82
2021/07/27 00:22:22;;;;;;;34.80;22.55;;;20.00;95.30;;;;;;5018580;28;20072;-83
2021/07/27 00:24:49;;;;;;;36.40;21.30;;;20.00;95.30;;;;;;5019169;28;20475;-83
2021/07/27 00:27:15;;;;;;;32.85;21.35;;;20.00;95.40;;;;;;5018554;28;20040;-82
2021/07/27 00:29:41;;;;;;;35.45;23.70;;;20.00;95.40;;;;;;5008916;28;20468;-82
2021/07/27 00:32:07;;;;;;;36.30;23.50;;;19.90;95.40;;;;;;4982173;28;20094;-83
2021/07/27 00:34:33;;;;;;;34.25;22.02;;;19.90;95.50;;;;;;4982566;28;20538;-83
2021/07/27 00:36:58;;;;;;;34.17;21.35;;;19.80;95.50;;;;;;4982793;28;20113;-83
2021/07/27 00:39:24;;;;;;;35.13;23.13;;;19.80;95.60;;;;;;5017316;28;20072;-83
2021/07/27 00:41:50;;;;;;;31.17;21.80;;;19.80;95.60;;;;;;4985927;28;20502;-82
2021/07/27 00:44:16;;;;;;;34.13;23.48;;;19.80;95.70;;;;;;4988262;28;20037;-83
2021/07/27 00:46:41;;;;;;;32.65;22.23;;;19.80;95.70;;;;;;4981964;28;20037;-83
2021/07/27 00:49:07;;;;;;;31.38;20.48;;;19.70;95.70;;;;;;4990325;28;20064;-83
2021/07/27 00:51:32;;;;;;;33.95;23.63;;;19.70;96.00;;;;;;5017462;28;20033;-82
2021/07/27 00:53:59;;;;;;;36.88;22.67;;;19.70;95.80;;;;;;4987920;28;20474;-83
2021/07/27 00:56:26;;;;;;;35.63;24.88;;;19.70;95.80;;;;;;5014556;28;20030;-83
2021/07/27 00:58:52;;;;;;;39.53;25.63;;;19.80;95.80;;;;;;4987806;28;20041;-83
2021/07/27 01:01:19;;;;;;;40.08;24.98;;;19.70;95.80;;;;;;5004049;28;20030;-83
2021/07/27 01:03:44;;;;;;;36.05;24.67;;;19.70;95.70;;;;;;4981851;28;20026;-83
2021/07/27 01:06:10;;;;;;;40.17;26.55;;;19.70;95.70;;;;;;4981833;28;20076;-83
2021/07/27 01:08:37;;;;;;;35.90;24.15;;;19.70;95.70;;;;;;5009134;28;20025;-83
2021/07/27 01:11:04;;;;;;;42.15;26.63;;;19.70;96.00;;;;;;4986769;28;20030;-83
2021/07/27 01:13:30;;;;;;;38.33;26.00;;;19.70;95.70;;;;;;4988771;28;20082;-83
2021/07/27 01:16:01;;;;;;;32.22;22.85;;;19.70;95.80;;;;;;4996408;28;20061;-83
2021/07/27 01:18:32;;;;;;;34.53;23.25;;;19.70;95.80;;;;;;4981382;28;20053;-83
2021/07/27 01:37:47;;;;;;;45.33;28.55;;;19.70;95.70;;;;;;4977933;28;20164;-83
2021/07/27 01:40:15;;;;;;;44.80;27.90;;;19.60;95.70;;;;;;4998027;28;20022;-83
2021/07/27 01:42:41;;;;;;;43.05;28.17;;;19.60;95.70;;;;;;5004522;28;20037;-83
2021/07/27 01:45:10;;;;;;;39.72;25.75;;;19.60;95.80;;;;;;4995634;28;20475;-83
2021/07/27 01:47:35;;;;;;;35.60;25.15;;;19.60;95.80;;;;;;5014945;28;20041;-83
2021/07/27 01:50:01;;;;;;;37.17;25.10;;;19.60;95.70;;;;;;4985097;28;20375;-83
2021/07/27 01:52:27;;;;;;;37.45;25.98;;;19.70;95.80;;;;;;5002447;28;20586;-83
2021/07/27 01:54:56;;;;;;;40.78;26.60;;;19.70;95.70;;;;;;5004173;28;20071;-83
2021/07/27 01:57:25;;;;;;;41.42;27.55;;;19.70;95.70;;;;;;5005013;28;20041;-83
2021/07/27 01:59:51;;;;;;;43.95;29.65;;;19.70;95.60;;;;;;5003599;28;20372;-83
2021/07/27 02:02:16;;;;;;;37.85;25.85;;;19.70;95.60;;;;;;5003570;28;20022;-83
2021/07/27 02:04:42;;;;;;;41.50;28.70;;;19.70;95.60;;;;;;5002799;28;20046;-83
2021/07/27 02:07:08;;;;;;;44.00;29.98;;;19.70;95.60;;;;;;5004122;28;20038;-83
2021/07/27 02:09:38;;;;;;;42.58;28.08;;;19.70;95.60;;;;;;5004421;28;20053;-83
2021/07/27 02:12:04;;;;;;;40.78;29.05;;;19.70;95.60;;;;;;5007062;28;20041;-83
2021/07/27 02:17:14;;;;;;;42.70;29.55;;;19.70;95.60;;;;;;5018383;28;20098;-83
2021/07/27 02:19:40;;;;;;;43.72;29.92;;;19.70;95.60;;;;;;5005993;28;20026;-83
2021/07/27 02:22:05;;;;;;;40.63;28.50;;;19.70;95.50;;;;;;4995562;28;20054;-82
2021/07/27 02:24:31;;;;;;;41.70;30.40;;;19.70;95.50;;;;;;4992892;28;20022;-83
2021/07/27 02:26:57;;;;;;;41.65;31.02;;;19.70;95.60;;;;;;5004680;28;20025;-83
2021/07/27 02:29:22;;;;;;;40.72;30.45;;;19.70;95.60;;;;;;4985702;28;20034;-83
2021/07/27 02:31:48;;;;;;;43.90;31.85;;;19.60;95.60;;;;;;5005870;28;20038;-83
2021/07/27 02:34:13;;;;;;;45.05;30.40;;;19.60;95.80;;;;;;5010272;28;20026;-83
2021/07/27 02:36:39;;;;;;;40.65;30.77;;;19.60;95.60;;;;;;4999916;28;20029;-87
2021/07/27 02:39:06;;;;;;;42.05;31.13;;;19.60;95.60;;;;;;4980418;28;20057;-88
2021/07/27 02:41:35;;;;;;;48.58;33.40;;;19.60;95.50;;;;;;4980557;28;20033;-88
2021/07/27 02:44:01;;;;;;;46.97;32.67;;;19.60;95.50;;;;;;5014325;28;20056;-88
2021/07/27 02:46:27;;;;;;;42.00;31.60;;;19.50;95.50;;;;;;4981070;28;20030;-88
2021/07/27 02:48:53;;;;;;;44.67;31.35;;;19.60;95.60;;;;;;4980035;28;20038;-88
2021/07/27 02:51:18;;;;;;;44.15;31.33;;;19.60;95.60;;;;;;5013952;28;20033;-88
2021/07/27 02:53:44;;;;;;;42.13;30.27;;;19.60;95.60;;;;;;5014216;28;20022;-87
2021/07/27 02:56:17;;;;;;;41.75;31.70;;;19.50;95.50;;;;;;4980102;28;20032;-88
2021/07/27 02:58:43;;;;;;;45.40;33.83;;;19.50;95.40;;;;;;4996549;28;20479;-88
2021/07/27 03:01:08;;;;;;;43.65;31.70;;;19.50;95.40;;;;;;4996478;28;20056;-88
2021/07/27 03:03:35;;;;;;;47.03;33.47;;;19.40;95.50;;;;;;4996386;28;20065;-88
2021/07/27 03:06:02;;;;;;;45.25;32.47;;;19.40;95.50;;;;;;4980128;28;20034;-88
2021/07/27 03:08:50;;;;;;;46.03;32.80;;;19.40;95.50;;;;;;4996971;28;20037;-88
2021/07/27 03:11:16;;;;;;;42.67;30.30;;;19.40;95.50;;;;;;4985728;28;20026;-88
2021/07/27 03:13:45;;;;;;;43.42;31.60;;;19.30;95.60;;;;;;4997766;28;20028;-88
2021/07/27 03:16:24;;;;;;;41.30;30.45;;;19.30;95.70;;;;;;4980890;28;20026;-88
2021/07/27 03:18:56;;;;;;;44.72;32.40;;;19.30;95.70;;;;;;4993648;28;20054;-88
2021/07/27 03:21:24;;;;;;;47.83;32.20;;;19.30;95.70;;;;;;4993450;28;20590;-88
2021/07/27 03:23:50;;;;;;;43.28;31.80;;;19.30;95.70;;;;;;4982553;28;20018;-88
2021/07/27 03:26:17;;;;;;;46.00;33.08;;;19.30;95.80;;;;;;5000996;28;20022;-87
2021/07/27 03:28:44;;;;;;;46.67;33.97;;;19.30;95.90;;;;;;5001416;28;20022;-88
2021/07/27 03:31:10;;;;;;;43.25;31.30;;;19.30;95.90;;;;;;4986671;28;20038;-88
2021/07/27 03:33:36;;;;;;;43.80;32.17;;;19.30;95.90;;;;;;4987584;28;20494;-88
2021/07/27 03:36:02;;;;;;;47.17;34.35;;;19.30;95.90;;;;;;4999918;28;20038;-88
2021/07/27 03:38:28;;;;;;;45.95;33.05;;;19.30;95.90;;;;;;4997167;28;20361;-88
2021/07/27 03:41:18;;;;;;;47.22;34.65;;;19.20;95.90;;;;;;4995692;28;20050;-88
2021/07/27 03:43:44;;;;;;;40.38;30.38;;;19.30;95.90;;;;;;4995558;28;20475;-88
2021/07/27 03:46:10;;;;;;;44.67;31.67;;;19.20;95.90;;;;;;4995740;28;20092;-87
2021/07/27 03:48:36;;;;;;;42.63;31.67;;;19.20;96.00;;;;;;4998191;28;20521;-88
2021/07/27 03:51:01;;;;;;;38.92;28.98;;;19.20;96.00;;;;;;5002401;28;20033;-88
2021/07/27 03:53:28;;;;;;;40.03;29.02;;;19.10;96.00;;;;;;4983185;28;20084;-88
2021/07/27 03:55:54;;;;;;;38.10;28.58;;;19.10;96.00;;;;;;4999939;28;20490;-88
2021/07/27 03:58:20;;;;;;;40.70;29.38;;;19.10;96.10;;;;;;5017761;28;20383;-84
2021/07/27 04:00:46;;;;;;;38.10;27.48;;;19.10;96.10;;;;;;5016899;28;20105;-84
2021/07/27 04:03:16;;;;;;;39.15;29.13;;;19.10;96.10;;;;;;5016460;28;20077;-83
2021/07/27 04:05:45;;;;;;;39.95;27.65;;;19.10;96.10;;;;;;4998801;28;20459;-83
2021/07/27 04:08:12;;;;;;;37.17;26.60;;;19.10;96.10;;;;;;4983118;28;20026;-84
2021/07/27 04:10:38;;;;;;;41.40;28.40;;;19.10;96.10;;;;;;5015400;28;20166;-84
2021/07/27 04:13:04;;;;;;;34.88;26.52;;;19.00;96.10;;;;;;4982671;28;20022;-84
2021/07/27 04:15:30;;;;;;;33.75;24.42;;;19.00;96.10;;;;;;4982089;28;20075;-84
2021/07/27 04:17:59;;;;;;;33.70;25.23;;;19.00;96.20;;;;;;4998638;28;20109;-83
2021/07/27 04:20:25;;;;;;;34.70;27.10;;;19.00;96.20;;;;;;4995732;23;20049;-83
2021/07/27 04:22:50;;;;;;;36.75;26.05;;;19.00;96.20;;;;;;5002042;28;20398;-83
2021/07/27 04:25:16;;;;;;;36.92;26.73;;;19.00;96.20;;;;;;4983696;28;20041;-83
2021/07/27 04:27:41;;;;;;;33.47;25.02;;;19.00;96.20;;;;;;5028555;28;20382;-84
2021/07/27 04:30:10;;;;;;;32.35;25.05;;;19.00;96.30;;;;;;5018907;28;20478;-84
2021/07/27 04:32:35;;;;;;;35.90;25.08;;;19.00;96.30;;;;;;5002772;28;20037;-84
2021/07/27 04:35:01;;;;;;;33.13;24.98;;;19.00;96.30;;;;;;4988596;28;20067;-83
2021/07/27 04:37:26;;;;;;;31.23;23.67;;;19.00;96.30;;;;;;5026270;28;20030;-83
2021/07/27 04:39:53;;;;;;;29.60;22.40;;;19.00;96.30;;;;;;5017171;28;20026;-83
2021/07/27 04:42:18;;;;;;;28.70;22.95;;;18.90;96.30;;;;;;5008467;28;20029;-83
2021/07/27 04:44:44;;;;;;;30.70;23.20;;;18.90;96.30;;;;;;5021455;28;20055;-83
2021/07/27 04:47:10;;;;;;;31.73;23.52;;;18.90;96.30;;;;;;4998469;28;20029;-83
2021/07/27 04:49:35;;;;;;;28.70;23.27;;;18.90;96.40;;;;;;5004265;28;20021;-83
2021/07/27 04:52:01;;;;;;;29.80;24.40;;;18.90;96.40;;;;;;4987800;28;20025;-83
2021/07/27 04:54:29;;;;;;;31.40;23.85;;;18.90;96.30;;;;;;4991794;28;20125;-83
2021/07/27 04:56:55;;;;;;;28.88;21.77;;;18.90;96.30;;;;;;5044816;28;20017;-83
2021/07/27 04:59:20;;;;;;;30.75;21.70;;;18.90;96.40;;;;;;5000432;28;20025;-84
2021/07/27 05:01:46;;;;;;;31.65;23.50;;;18.90;96.40;;;;;;5016991;28;20029;-83
2021/07/27 05:04:12;;;;;;;30.63;22.92;;;18.90;96.40;;;;;;4984424;28;20541;-83
2021/07/27 05:06:38;;;;;;;29.42;22.63;;;18.80;96.50;;;;;;5011933;28;20033;-83
2021/07/27 05:09:04;;;;;;;30.73;24.23;;;18.80;96.50;;;;;;5005519;28;20502;-84
2021/07/27 05:11:30;;;;;;;28.33;22.58;;;18.80;96.50;;;;;;5001267;28;20033;-84
2021/07/27 05:13:56;;;;;;;25.70;20.27;;;18.80;96.40;;;;;;5018557;28;20026;-83
2021/07/27 05:16:22;;;;;;;26.80;19.50;;;18.80;96.40;;;;;;5018279;28;20025;-87
2021/07/27 05:18:54;;;;;;;27.88;20.70;;;18.80;96.40;;;;;;5026964;28;20434;-87
2021/07/27 05:21:20;;;;;;;25.55;19.25;;;18.90;96.40;;;;;;5016555;28;20424;-87
2021/07/27 05:23:45;;;;;;;26.83;21.13;;;18.90;96.40;;;;;;5000882;28;20025;-87
2021/07/27 05:26:11;;;;;;;28.60;20.95;;;18.80;96.30;;;;;;4983037;28;20048;-87
2021/07/27 05:28:37;;;;;;;27.15;21.25;;;18.80;96.00;;;;;;5014047;28;20033;-87
2021/07/27 05:31:06;;;;;;;24.50;19.48;;;18.80;96.00;;;;;;5029349;28;20473;-88
2021/07/27 05:33:32;;;;;;;27.13;18.92;;;18.80;96.10;;;;;;5023455;28;20112;-87
2021/07/27 05:35:58;;;;;;;26.85;20.13;;;18.80;96.00;;;;;;5003672;28;20067;-87
2021/07/27 05:38:23;;;;;;;21.90;17.42;;;18.80;96.00;;;;;;4998082;28;20093;-87
2021/07/27 05:40:50;;;;;;;23.58;18.67;;;18.80;96.00;;;;;;4989657;28;20018;-87
2021/07/27 05:43:16;;;;;;;25.65;19.60;;;18.80;96.10;;;;;;5000430;28;20075;-87
2021/07/27 05:45:42;;;;;;;25.58;20.13;;;18.80;96.10;;;;;;5015813;28;20022;-88
2021/07/27 05:48:07;;;;;;;26.85;21.08;;;18.90;96.10;;;;;;4999148;28;20120;-87
2021/07/27 05:50:33;;;;;;;22.80;17.75;;;18.90;96.10;;;;;;4983530;28;20050;-88
2021/07/27 05:52:58;;;;;;;22.90;18.10;;;18.90;96.10;;;;;;4988833;28;20110;-87
2021/07/27 05:55:24;;;;;;;24.45;19.50;;;18.90;96.10;;;;;;5017349;28;20022;-86
2021/07/27 05:57:50;;;;;;;28.27;20.27;;;18.90;96.10;;;;;;5033796;28;20017;-87
2021/07/27 06:00:16;;;;;;;25.88;19.48;;;18.90;96.00;;;;;;4988313;28;20022;-86
2021/07/27 06:02:41;;;;;;;21.15;18.00;;;19.00;96.00;;;;;;5053257;28;20025;-87
2021/07/27 06:05:07;;;;;;;22.85;18.15;;;19.00;96.00;;;;;;5014252;28;20047;-86
2021/07/27 06:07:33;;;;;;;23.15;17.80;;;19.00;95.90;;;;;;4998987;28;20546;-87
2021/07/27 06:09:59;;;;;;;26.50;18.17;;;19.00;95.90;;;;;;5025251;28;20061;-88
2021/07/27 06:12:27;;;;;;;23.73;18.25;;;19.10;95.80;;;;;;4997609;28;20117;-88
2021/07/27 06:14:53;;;;;;;23.13;18.20;;;19.10;95.80;;;;;;5000950;28;20013;-87
2021/07/27 06:17:19;;;;;;;22.13;16.77;;;19.10;95.80;;;;;;5000024;28;20111;-87
2021/07/27 06:19:44;;;;;;;20.80;16.73;;;19.10;95.60;;;;;;5035888;28;20022;-88
2021/07/27 06:22:10;;;;;;;24.90;17.65;;;19.20;95.70;;;;;;5025120;28;20057;-88
2021/07/27 06:24:36;;;;;;;23.90;16.95;;;19.20;95.70;;;;;;5017142;28;20521;-87
2021/07/27 06:27:03;;;;;;;21.60;17.10;;;19.20;95.60;;;;;;4981123;28;20053;-87
2021/07/27 06:29:29;;;;;;;22.95;17.42;;;19.30;95.50;;;;;;5011020;28;20017;-86
2021/07/27 06:31:55;;;;;;;23.77;17.40;;;19.40;95.50;;;;;;5000337;28;20037;-88
2021/07/27 06:34:20;;;;;;;21.25;17.13;;;19.40;95.50;;;;;;4989277;28;20026;-87
2021/07/27 06:36:46;;;;;;;26.35;18.67;;;19.40;95.50;;;;;;5002818;28;20021;-88
2021/07/27 06:39:11;;;;;;;23.15;18.70;;;19.50;95.30;;;;;;5016922;28;20475;-87
2021/07/27 06:41:37;;;;;;;24.10;19.35;;;19.50;95.20;;;;;;4998333;28;20373;-88
2021/07/27 06:44:06;;;;;;;21.17;17.48;;;19.50;95.30;;;;;;4981669;28;20116;-88
2021/07/27 06:46:32;;;;;;;21.70;17.23;;;19.60;95.10;;;;;;5028717;28;20437;-88
2021/07/27 06:48:59;;;;;;;22.75;17.77;;;19.60;95.20;;;;;;5001565;28;20028;-89
2021/07/27 06:51:24;;;;;;;22.27;17.92;;;19.60;94.90;;;;;;5017611;28;20505;-88
2021/07/27 06:53:51;;;;;;;22.25;17.08;;;19.60;94.80;;;;;;5005512;28;20017;-88
2021/07/27 06:56:16;;;;;;;19.05;16.00;;;19.70;94.80;;;;;;5035488;28;20093;-88
2021/07/27 06:58:42;;;;;;;21.77;17.02;;;19.70;94.60;;;;;;5017100;28;20021;-89
2021/07/27 07:01:09;;;;;;;21.38;16.73;;;19.70;94.50;;;;;;4991159;28;20026;-88
2021/07/27 07:03:39;;;;;;;21.48;17.17;;;19.70;94.60;;;;;;5008084;28;20025;-87
2021/07/27 07:06:06;;;;;;;22.10;17.15;;;19.80;94.60;;;;;;4999044;28;20474;-87
2021/07/27 07:08:31;;;;;;;20.80;16.70;;;19.80;94.60;;;;;;5015359;28;20035;-87
2021/07/27 07:10:58;;;;;;;20.67;16.50;;;19.80;94.70;;;;;;5020663;28;20160;-87
2021/07/27 07:13:25;;;;;;;23.40;16.95;;;19.80;94.60;;;;;;5018181;28;20474;-88
2021/07/27 07:15:51;;;;;;;24.50;18.35;;;19.90;94.80;;;;;;5000959;28;20044;-87
2021/07/27 07:18:17;;;;;;;20.95;18.15;;;19.90;94.80;;;;;;4996301;28;20038;-87
2021/07/27 07:20:42;;;;;;;22.15;18.25;;;19.90;94.60;;;;;;5015137;28;20104;-87
2021/07/27 07:23:08;;;;;;;23.85;20.23;;;20.00;94.60;;;;;;5016512;28;20017;-89
2021/07/27 07:25:39;;;;;;;25.65;19.65;;;20.00;94.30;;;;;;4993203;28;20125;-89
2021/07/27 07:28:07;;;;;;;24.27;19.05;;;20.00;94.10;;;;;;5005855;28;20045;-88
2021/07/27 07:30:33;;;;;;;26.15;19.42;;;20.00;94.30;;;;;;5025416;28;20017;-89
2021/07/27 07:32:59;;;;;;;22.23;18.05;;;20.00;94.20;;;;;;4994349;28;20017;-90
2021/07/27 07:35:29;;;;;;;25.52;18.35;;;20.00;94.30;;;;;;5001513;28;20116;-89
2021/07/27 07:37:55;;;;;;;23.50;19.02;;;20.00;94.30;;;;;;5021392;28;20108;-91
2021/07/27 07:40:21;;;;;;;25.98;19.17;;;20.10;94.40;;;;;;5023426;28;20118;-88
2021/07/27 07:42:47;;;;;;;24.58;18.13;;;20.10;94.50;;;;;;5035733;28;20165;-87
2021/07/27 07:45:13;;;;;;;22.95;18.85;;;20.10;94.60;;;;;;5020575;28;20061;-87
2021/07/27 07:47:41;;;;;;;26.70;20.95;;;20.10;94.60;;;;;;5032559;28;20021;-86
2021/07/27 07:50:07;;;;;;;21.70;18.35;;;20.10;94.30;;;;;;5021486;28;20521;-86
2021/07/27 07:52:35;;;;;;;23.98;18.63;;;20.10;94.60;;;;;;5013363;28;20026;-86
2021/07/27 07:55:05;;;;;;;23.40;19.80;;;20.20;94.20;;;;;;5014911;28;20032;-86
2021/07/27 07:57:31;;;;;;;24.70;18.05;;;20.20;94.30;;;;;;5025971;28;20024;-86
2021/07/27 08:00:00;;;;;;;22.95;19.40;;;20.30;94.40;;;;;;5007036;28;20063;-87
2021/07/27 08:02:27;;;;;;;23.88;19.45;;;20.30;94.30;;;;;;4986721;28;20036;-87
2021/07/27 08:04:53;;;;;;;22.33;18.27;;;20.40;94.20;;;;;;4990285;28;20033;-87
2021/07/27 08:07:18;;;;;;;23.23;18.90;;;20.30;93.80;;;;;;4989097;28;20533;-86
2021/07/27 08:09:44;;;;;;;22.13;17.25;;;20.30;93.90;;;;;;5020400;28;20056;-87
2021/07/27 08:12:10;;;;;;;23.00;19.13;;;20.30;94.00;;;;;;4989091;28;20120;-86
2021/07/27 08:14:36;;;;;;;24.35;18.80;;;20.30;93.90;;;;;;5029861;28;20056;-87
2021/07/27 08:17:01;;;;;;;22.52;18.55;;;20.30;94.10;;;;;;5047952;28;20106;-87
2021/07/27 08:19:30;;;;;;;25.23;18.58;;;20.30;94.20;;;;;;4991148;28;20032;-86
2021/07/27 08:21:56;;;;;;;25.42;18.80;;;20.40;94.30;;;;;;5038601;28;20065;-86
2021/07/27 08:24:21;;;;;;;22.70;18.27;;;20.40;94.20;;;;;;5007634;28;20494;-87
2021/07/27 08:26:47;;;;;;;23.05;18.60;;;20.40;94.20;;;;;;5015417;28;20034;-86
2021/07/27 08:29:13;;;;;;;24.67;19.17;;;20.40;94.30;;;;;;5035420;28;20037;-87
2021/07/27 08:31:38;;;;;;;25.02;19.30;;;20.40;94.30;;;;;;4981752;28;20080;-86
2021/07/27 08:34:04;;;;;;;22.48;19.38;;;20.50;94.40;;;;;;5007091;28;20084;-85
2021/07/27 08:36:29;;;;;;;21.40;18.27;;;20.50;94.20;;;;;;4984383;28;20018;-85
2021/07/27 08:38:55;;;;;;;22.85;18.58;;;20.50;94.20;;;;;;5012844;28;20070;-85
2021/07/27 08:41:24;;;;;;;24.40;18.42;;;20.60;94.20;;;;;;5000643;28;20041;-85
2021/07/27 08:43:50;;;;;;;23.17;18.30;;;20.60;94.20;;;;;;5017026;28;20022;-85
2021/07/27 08:46:16;;;;;;;23.08;18.65;;;20.70;94.30;;;;;;5000616;28;20502;-86
2021/07/27 08:48:42;;;;;;;20.55;17.02;;;20.70;94.00;;;;;;4997263;28;20471;-85
2021/07/27 08:51:08;;;;;;;24.35;18.55;;;20.80;94.20;;;;;;5016632;28;20044;-85
2021/07/27 08:53:34;;;;;;;23.80;19.08;;;20.80;94.20;;;;;;5018594;28;20041;-85
2021/07/27 08:55:59;;;;;;;22.08;18.58;;;20.90;94.10;;;;;;4995994;28;20217;-85
2021/07/27 08:58:27;;;;;;;20.98;17.70;;;20.90;94.00;;;;;;5016780;28;20033;-85
2021/07/27 09:00:52;;;;;;;21.52;17.23;;;20.90;93.90;;;;;;5012948;28;20026;-85
2021/07/27 09:03:18;;;;;;;21.25;17.63;;;21.00;94.00;;;;;;5011995;28;20029;-85
2021/07/27 09:05:45;;;;;;;20.63;17.95;;;21.00;93.90;;;;;;5009765;28;20029;-85
2021/07/27 09:08:12;;;;;;;20.48;16.23;;;21.10;93.50;;;;;;5023109;28;20103;-85
2021/07/27 09:10:44;;;;;;;18.45;15.95;;;21.10;93.30;;;;;;5012101;28;20036;-85
2021/07/27 09:13:17;;;;;;;17.98;15.10;;;21.10;93.20;;;;;;5025044;28;20025;-85
2021/07/27 09:15:45;;;;;;;17.00;14.05;;;21.20;92.90;;;;;;5014978;28;20022;-86
2021/07/27 09:18:21;;;;;;;15.52;12.77;;;21.20;92.80;;;;;;5021306;28;20087;-85
2021/07/27 09:20:51;;;;;;;17.73;13.38;;;21.20;93.00;;;;;;5008094;28;20046;-86
2021/07/27 09:23:19;;;;;;;15.32;12.82;;;21.30;92.80;;;;;;5016125;28;20021;-86
2021/07/27 09:25:46;;;;;;;15.07;12.85;;;21.40;92.80;;;;;;5016089;28;20043;-86
2021/07/27 09:28:12;;;;;;;16.00;12.15;;;21.40;92.60;;;;;;5002615;28;20013;-86
2021/07/27 09:30:42;;;;;;;17.20;14.40;;;21.50;92.40;;;;;;5005720;28;20036;-86
2021/07/27 09:33:09;;;;;;;13.93;12.30;;;21.60;91.80;;;;;;4987798;28;20421;-86
2021/07/27 09:35:36;;;;;;;14.05;11.50;;;21.60;91.80;;;;;;5011925;28;20025;-86
2021/07/27 09:38:04;;;;;;;15.27;13.68;;;21.60;92.00;;;;;;5026588;28;20108;-86
2021/07/27 09:40:30;;;;;;;14.05;12.18;;;21.70;91.20;;;;;;5009600;28;20502;-86
2021/07/27 09:42:57;;;;;;;13.63;11.82;;;21.70;91.30;;;;;;5026328;28;20033;-86
2021/07/27 09:45:26;;;;;;;14.52;10.88;;;21.70;91.20;;;;;;5012404;28;20352;-86
2021/07/27 09:47:54;;;;;;;15.00;11.68;;;21.80;91.20;;;;;;5012500;28;20570;-86
2021/07/27 09:50:23;;;;;;;15.32;12.15;;;21.80;91.00;;;;;;5030071;28;20068;-86
2021/07/27 09:52:49;;;;;;;15.05;12.88;;;21.90;91.00;;;;;;5022449;28;20033;-86
2021/07/27 09:55:15;;;;;;;16.20;11.95;;;21.90;90.70;;;;;;4987553;28;20028;-86
2021/07/27 09:57:41;;;;;;;14.02;11.18;;;22.00;90.70;;;;;;5016113;28;20021;-86
2021/07/27 10:00:07;;;;;;;13.32;11.45;;;22.10;90.80;;;;;;5015811;28;20021;-86
2021/07/27 10:02:39;;;;;;;16.13;13.10;;;22.20;90.50;;;;;;4982517;28;20018;-86
2021/07/27 10:05:08;;;;;;;13.30;11.13;;;22.20;90.10;;;;;;5008499;28;20069;-85
2021/07/27 10:07:34;;;;;;;14.00;11.02;;;22.30;89.90;;;;;;5017530;28;20103;-86
2021/07/27 10:10:06;;;;;;;14.88;11.32;;;22.40;89.00;;;;;;5007822;28;20065;-87
2021/07/27 10:12:34;;;;;;;12.38;9.57;;;22.40;87.30;;;;;;5018005;28;20045;-85
2021/07/27 10:15:12;;;;;;;13.30;10.60;;;22.50;87.70;;;;;;5024440;28;20449;-85
2021/07/27 10:17:51;;;;;;;12.70;10.60;;;22.60;86.80;;;;;;5015362;28;20491;-85
2021/07/27 10:20:28;;;;;;;11.57;9.77;;;22.60;86.90;;;;;;5008827;23;20769;-81
2021/07/27 10:22:54;;;;;;;11.05;9.15;;;22.70;87.30;;;;;;5032453;28;20112;-83
2021/07/27 10:25:20;;;;;;;11.40;9.00;;;22.70;84.50;;;;;;5003311;28;20033;-82
2021/07/27 10:27:52;;;;;;;10.93;8.93;;;22.70;84.00;;;;;;5015553;28;20061;-82
2021/07/27 10:30:30;;;;;;;10.65;8.32;;;22.70;84.00;;;;;;5025637;28;20398;-82
2021/07/27 10:32:56;;;;;;;11.38;10.18;;;22.80;85.60;;;;;;5026066;28;20552;-82
2021/07/27 10:35:33;;;;;;;13.15;10.23;;;22.70;83.70;;;;;;5011911;28;20030;-82
2021/07/27 10:38:12;;;;;;;10.13;9.07;;;22.80;84.10;;;;;;5009324;28;20025;-82
2021/07/27 10:40:39;;;;;;;12.13;9.75;;;22.70;84.70;;;;;;4999814;28;20030;-83
2021/07/27 10:43:07;;;;;;;11.30;9.57;;;22.80;84.30;;;;;;4989773;28;20475;-82
2021/07/27 10:45:36;;;;;;;10.38;8.35;;;22.70;84.60;;;;;;4999056;28;20034;-83
2021/07/27 10:48:02;;;;;;;10.70;9.40;;;22.70;84.70;;;;;;5004703;28;20026;-82
2021/07/27 10:50:32;;;;;;;11.65;10.10;;;22.70;85.10;;;;;;5016549;28;20037;-82
2021/07/27 10:53:05;;;;;;;12.80;9.18;;;22.70;84.50;;;;;;5032856;28;20025;-81
2021/07/27 10:55:32;;;;;;;10.27;8.30;;;22.70;84.90;;;;;;5019085;28;20025;-82
2021/07/27 10:58:02;;;;;;;10.45;8.65;;;22.70;85.90;;;;;;5030889;28;20021;-82
2021/07/27 11:00:35;;;;;;;11.93;9.40;;;22.70;85.30;;;;;;5021262;28;20048;-82
2021/07/27 11:03:02;;;;;;;11.75;10.15;;;22.70;84.40;;;;;;5022438;28;20041;-82
2021/07/27 11:05:29;;;;;;;11.27;9.57;;;22.70;84.40;;;;;;4997201;28;20034;-82
2021/07/27 11:07:55;;;;;;;10.50;8.95;;;22.70;85.10;;;;;;5012355;28;20006;-82
2021/07/27 11:10:22;;;;;;;10.13;9.07;;;22.70;85.50;;;;;;5007676;28;20033;-82
2021/07/27 11:12:49;;;;;;;12.52;9.55;;;22.70;84.60;;;;;;4983579;28;20077;-82
2021/07/27 11:15:20;;;;;;;11.60;10.40;;;22.70;84.40;;;;;;5025165;28;20026;-82
2021/07/27 11:17:51;;;;;;;14.10;10.60;;;22.70;84.70;;;;;;5012773;28;20488;-82
2021/07/27 11:20:19;;;;;;;12.75;9.65;;;22.70;84.90;;;;;;5031241;28;20037;-82
2021/07/27 11:22:47;;;;;;;12.40;10.18;;;22.70;85.40;;;;;;5030676;28;20383;-82
2021/07/27 11:25:17;;;;;;;12.15;10.10;;;22.80;85.70;;;;;;5018029;28;20382;-83
2021/07/27 11:27:43;;;;;;;13.00;10.55;;;22.90;85.80;;;;;;5011785;28;20026;-82
2021/07/27 11:30:09;;;;;;;13.25;10.38;;;22.90;85.10;;;;;;4995135;28;20498;-82
2021/07/27 11:32:50;;;;;;;14.15;10.13;;;22.90;84.70;;;;;;5022466;28;20039;-83
2021/07/27 11:35:22;;;;;;;13.35;9.68;;;23.00;84.80;;;;;;5031956;28;20033;-82
2021/07/27 11:38:02;;;;;;;13.38;10.57;;;22.90;85.00;;;;;;5031823;28;20026;-83
2021/07/27 11:40:29;;;;;;;14.38;9.88;;;22.90;84.40;;;;;;5032225;28;20072;-82
2021/07/27 11:43:06;;;;;;;8.95;6.60;;;22.80;86.10;;;;;;5012588;28;20032;-82
2021/07/27 11:45:50;;;;;;;12.50;5.53;;;22.70;89.40;;;;;;5018774;28;20056;-82
2021/07/27 11:48:16;;;;;;;7.78;3.67;;;22.50;90.70;;;;;;5032286;28;20033;-87
2021/07/27 11:50:43;;;;;;;7.93;3.83;;;22.20;91.30;;;;;;5015759;28;20021;-88
2021/07/27 11:53:31;;;;;;;4.78;2.90;;;22.00;92.20;;;;;;5021746;28;20150;-88
2021/07/27 11:56:09;;;;;;;8.07;3.38;;;21.80;92.80;;;;;;5013938;28;20022;-89
2021/07/27 11:58:34;;;;;;;8.30;3.30;;;21.50;93.10;;;;;;5014688;28;20355;-88
2021/07/27 12:01:01;;;;;;;4.78;2.95;;;21.40;93.50;;;;;;5000998;28;20057;-89
2021/07/27 12:03:27;;;;;;;5.53;3.28;;;21.30;93.90;;;;;;5025345;28;20017;-88
2021/07/27 12:05:55;;;;;;;5.95;3.20;;;21.20;94.40;;;;;;5015934;28;20018;-88
2021/07/27 12:08:21;;;;;;;5.80;3.47;;;21.10;94.60;;;;;;5014760;28;20026;-89
2021/07/27 12:10:47;;;;;;;6.25;3.67;;;21.00;95.00;;;;;;5014214;28;20028;-89
2021/07/27 12:13:13;;;;;;;5.57;3.67;;;21.00;95.00;;;;;;5038754;28;20025;-87
2021/07/27 12:15:38;;;;;;;5.28;3.55;;;21.00;95.20;;;;;;5017705;28;20124;-88
2021/07/27 12:18:04;;;;;;;6.25;3.40;;;21.00;95.60;;;;;;5020332;28;20467;-88
2021/07/27 12:20:30;;;;;;;6.15;4.03;;;20.90;95.40;;;;;;5038440;28;20120;-88
2021/07/27 12:22:56;;;;;;;6.20;3.35;;;20.90;95.70;;;;;;5018949;28;20041;-88
2021/07/27 12:25:21;;;;;;;7.30;3.70;;;20.90;95.90;;;;;;5001544;28;20184;-88
2021/07/27 12:27:47;;;;;;;4.43;3.45;;;20.80;95.90;;;;;;5026653;28;20073;-88
2021/07/27 12:30:13;;;;;;;5.30;3.35;;;20.80;95.90;;;;;;5014787;28;20101;-87
2021/07/27 12:32:39;;;;;;;6.38;3.58;;;20.80;96.00;;;;;;5050079;28;20052;-88
2021/07/27 12:35:05;;;;;;;7.18;3.55;;;20.80;95.90;;;;;;5017913;28;20041;-88
2021/07/27 12:37:34;;;;;;;5.70;3.70;;;20.80;95.90;;;;;;5038151;28;20025;-88
2021/07/27 12:40:00;;;;;;;5.38;3.38;;;20.80;96.30;;;;;;5051431;28;20395;-88
2021/07/27 12:42:25;;;;;;;5.68;3.97;;;20.90;96.40;;;;;;5005247;28;20033;-88
2021/07/27 12:44:51;;;;;;;5.72;3.53;;;20.90;96.60;;;;;;5038598;28;20025;-87
2021/07/27 12:47:17;;;;;;;6.55;3.92;;;20.90;96.60;;;;;;5021597;28;20029;-88